This is the latest recevied weather packets stored in our database for station/object SQ4LOL-13. If no packets are shown the sender has not sent any weather packets the latest 10 day(s).
| Time | Temp. | Humidity | Pressure | Rain* | Wind** | Luminosity | Snow |
|---|---|---|---|---|---|---|---|
| 1778245954 | 11.11° C | 88% | 999.1 hPa | 0 mm | - | - | - |
| 1778242341 | 11.11° C | 89% | 999.1 hPa | 0.25 mm | - | - | - |
| 1778238128 | 10.56° C | 90% | 998.9 hPa | 1.52 mm | - | - | - |
| 1778236923 | 10.56° C | 89% | 998.9 hPa | 1.52 mm | - | - | - |
| 1778229117 | 10° C | 90% | 998.6 hPa | 1.52 mm | - | - | - |
| 1778223699 | 9.44° C | 90% | 997.9 hPa | 1.27 mm | - | - | - |
| 1778221271 | 9.44° C | 90% | 997.7 hPa | 1.52 mm | - | - | - |
| 1778218261 | 9.44° C | 90% | 997.5 hPa | 0.76 mm | - | - | - |
| 1778216455 | 9.44° C | 90% | 997.3 hPa | 0.76 mm | - | - | - |
| 1778214709 | 9.44° C | 90% | 997.2 hPa | 0.51 mm | - | - | - |
| 1778212241 | 9.44° C | 90% | 997.2 hPa | 0.25 mm | - | - | - |
| 1778211639 | 9.44° C | 89% | 997.1 hPa | 0.25 mm | - | - | - |
| 1778209232 | 9.44° C | 89% | 997 hPa | 0.25 mm | - | - | - |
| 1778208630 | 9.44° C | 89% | 996.9 hPa | 0.25 mm | - | - | - |
| 1778195987 | 10.56° C | 83% | 997 hPa | 0 mm | - | - | - |
| 1778192978 | 11.11° C | 84% | 996.9 hPa | 0 mm | - | - | - |
| 1778190569 | 11.11° C | 84% | 996.7 hPa | 0 mm | - | - | - |
| 1778188181 | 11.67° C | 83% | 996.6 hPa | 0 mm | - | - | - |
| 1778185753 | 11.67° C | 83% | 996.1 hPa | 0 mm | - | - | - |
| 1778174315 | 15.56° C | 77% | 994.2 hPa | 0 mm | - | - | - |
| 1778172510 | 16.11° C | 74% | 994.1 hPa | 0 mm | - | - | - |
| 1778170101 | 17.78° C | 72% | 993.5 hPa | 0.25 mm | - | - | - |
| 1778167713 | 18.33° C | 78% | 993.2 hPa | 0.25 mm | - | - | - |
| 1778166489 | 17.78° C | 80% | 992.9 hPa | 0.25 mm | - | - | - |
| 1778161072 | 18.33° C | 85% | 992.5 hPa | 1.02 mm | - | - | - |
* Rain latest hour (hover to see other rain measurements)
** Current wind speed in m/s (hover to see current wind gust speed)